sensor_id;sensor_type;location;lat;lon;timestamp;pressure;altitude;pressure_sealevel;temperature
69530;BMP180;56727;47.188;8.840;2023-02-01T00:01:05;97888.40;;;11.60
69530;BMP180;56727;47.188;8.840;2023-02-01T00:03:32;97886.60;;;11.60
69530;BMP180;56727;47.188;8.840;2023-02-01T00:06:00;97890.40;;;11.60
69530;BMP180;56727;47.188;8.840;2023-02-01T00:08:27;97892.80;;;11.60
69530;BMP180;56727;47.188;8.840;2023-02-01T00:11:03;97885.80;;;11.50
69530;BMP180;56727;47.188;8.840;2023-02-01T00:13:33;97885.80;;;11.58
69530;BMP180;56727;47.188;8.840;2023-02-01T00:16:18;97889.60;;;11.60
69530;BMP180;56727;47.188;8.840;2023-02-01T00:18:48;97888.60;;;11.68
69530;BMP180;56727;47.188;8.840;2023-02-01T00:21:19;97890.80;;;11.70
69530;BMP180;56727;47.188;8.840;2023-02-01T00:23:46;97889.60;;;11.70
69530;BMP180;56727;47.188;8.840;2023-02-01T00:26:32;97889.60;;;11.70
69530;BMP180;56727;47.188;8.840;2023-02-01T00:29:00;97884.00;;;11.74
69530;BMP180;56727;47.188;8.840;2023-02-01T00:31:28;97875.60;;;11.78
69530;BMP180;56727;47.188;8.840;2023-02-01T00:33:54;97870.00;;;11.72
69530;BMP180;56727;47.188;8.840;2023-02-01T00:36:21;97863.40;;;11.70
69530;BMP180;56727;47.188;8.840;2023-02-01T00:38:49;97864.20;;;11.70
69530;BMP180;56727;47.188;8.840;2023-02-01T00:41:18;97862.20;;;11.84
69530;BMP180;56727;47.188;8.840;2023-02-01T00:43:46;97854.20;;;11.90
69530;BMP180;56727;47.188;8.840;2023-02-01T00:46:15;97855.40;;;11.90
69530;BMP180;56727;47.188;8.840;2023-02-01T00:48:43;97853.60;;;11.90
69530;BMP180;56727;47.188;8.840;2023-02-01T00:51:14;97850.00;;;11.90
69530;BMP180;56727;47.188;8.840;2023-02-01T00:53:42;97849.00;;;11.90
69530;BMP180;56727;47.188;8.840;2023-02-01T00:56:11;97843.80;;;11.86
69530;BMP180;56727;47.188;8.840;2023-02-01T00:58:38;97835.60;;;11.86
69530;BMP180;56727;47.188;8.840;2023-02-01T01:01:16;97826.80;;;11.84
69530;BMP180;56727;47.188;8.840;2023-02-01T01:03:47;97820.20;;;11.84
69530;BMP180;56727;47.188;8.840;2023-02-01T01:06:17;97820.20;;;11.82
69530;BMP180;56727;47.188;8.840;2023-02-01T01:08:44;97821.20;;;11.80
69530;BMP180;56727;47.188;8.840;2023-02-01T01:11:15;97816.20;;;11.80
69530;BMP180;56727;47.188;8.840;2023-02-01T01:13:43;97818.60;;;11.78
69530;BMP180;56727;47.188;8.840;2023-02-01T01:16:10;97818.80;;;11.72
69530;BMP180;56727;47.188;8.840;2023-02-01T01:18:38;97818.40;;;11.70
69530;BMP180;56727;47.188;8.840;2023-02-01T01:21:08;97816.40;;;11.68
69530;BMP180;56727;47.188;8.840;2023-02-01T01:23:36;97810.80;;;11.62
69530;BMP180;56727;47.188;8.840;2023-02-01T01:26:12;97797.80;;;11.60
69530;BMP180;56727;47.188;8.840;2023-02-01T01:28:39;97804.00;;;11.56
69530;BMP180;56727;47.188;8.840;2023-02-01T01:34:05;97800.40;;;11.46
69530;BMP180;56727;47.188;8.840;2023-02-01T01:36:32;97794.20;;;11.28
69530;BMP180;56727;47.188;8.840;2023-02-01T01:38:59;97800.00;;;11.20
69530;BMP180;56727;47.188;8.840;2023-02-01T01:41:31;97807.20;;;11.08
69530;BMP180;56727;47.188;8.840;2023-02-01T01:44:04;97805.20;;;11.10
69530;BMP180;56727;47.188;8.840;2023-02-01T01:46:35;97810.00;;;11.02
69530;BMP180;56727;47.188;8.840;2023-02-01T01:49:22;97810.80;;;11.00
69530;BMP180;56727;47.188;8.840;2023-02-01T01:52:02;97803.00;;;11.00
69530;BMP180;56727;47.188;8.840;2023-02-01T01:54:37;97797.20;;;11.00
69530;BMP180;56727;47.188;8.840;2023-02-01T01:57:19;97801.80;;;11.10
69530;BMP180;56727;47.188;8.840;2023-02-01T01:59:54;97798.40;;;11.10
69530;BMP180;56727;47.188;8.840;2023-02-01T02:02:22;97799.00;;;11.10
69530;BMP180;56727;47.188;8.840;2023-02-01T02:04:49;97796.60;;;11.04
69530;BMP180;56727;47.188;8.840;2023-02-01T02:07:22;97795.20;;;11.02
69530;BMP180;56727;47.188;8.840;2023-02-01T02:09:49;97791.60;;;11.02
69530;BMP180;56727;47.188;8.840;2023-02-01T02:12:16;97789.60;;;11.00
69530;BMP180;56727;47.188;8.840;2023-02-01T02:14:44;97790.00;;;10.94
69530;BMP180;56727;47.188;8.840;2023-02-01T02:17:59;97785.40;;;10.92
69530;BMP180;56727;47.188;8.840;2023-02-01T02:27:39;97792.00;;;10.96
69530;BMP180;56727;47.188;8.840;2023-02-01T02:34:50;97800.20;;;10.90
69530;BMP180;56727;47.188;8.840;2023-02-01T02:37:36;97806.40;;;10.80
69530;BMP180;56727;47.188;8.840;2023-02-01T02:40:32;97800.20;;;10.74
69530;BMP180;56727;47.188;8.840;2023-02-01T02:43:23;97809.80;;;10.70
69530;BMP180;56727;47.188;8.840;2023-02-01T02:46:24;97811.80;;;10.70
69530;BMP180;56727;47.188;8.840;2023-02-01T02:49:23;97813.80;;;10.60
69530;BMP180;56727;47.188;8.840;2023-02-01T02:52:05;97820.00;;;10.54
69530;BMP180;56727;47.188;8.840;2023-02-01T02:54:56;97823.00;;;10.60
69530;BMP180;56727;47.188;8.840;2023-02-01T02:57:30;97828.60;;;10.50
69530;BMP180;56727;47.188;8.840;2023-02-01T03:00:28;97820.00;;;10.50
69530;BMP180;56727;47.188;8.840;2023-02-01T03:03:14;97813.80;;;10.50
69530;BMP180;56727;47.188;8.840;2023-02-01T03:05:59;97814.60;;;10.48
69530;BMP180;56727;47.188;8.840;2023-02-01T03:08:30;97820.60;;;10.40
69530;BMP180;56727;47.188;8.840;2023-02-01T03:11:15;97814.80;;;10.40
69530;BMP180;56727;47.188;8.840;2023-02-01T03:13:54;97814.60;;;10.40
69530;BMP180;56727;47.188;8.840;2023-02-01T03:16:28;97809.20;;;10.40
69530;BMP180;56727;47.188;8.840;2023-02-01T03:19:24;97821.00;;;10.38
69530;BMP180;56727;47.188;8.840;2023-02-01T03:21:57;97824.40;;;10.40
69530;BMP180;56727;47.188;8.840;2023-02-01T03:24:32;97822.20;;;10.36
69530;BMP180;56727;47.188;8.840;2023-02-01T03:27:34;97826.40;;;10.16
69530;BMP180;56727;47.188;8.840;2023-02-01T03:30:20;97823.80;;;10.12
69530;BMP180;56727;47.188;8.840;2023-02-01T03:32:51;97828.00;;;10.06
69530;BMP180;56727;47.188;8.840;2023-02-01T03:36:15;97811.80;;;10.16
69530;BMP180;56727;47.188;8.840;2023-02-01T03:42:13;97817.60;;;10.30
69530;BMP180;56727;47.188;8.840;2023-02-01T03:45:03;97821.80;;;10.24
69530;BMP180;56727;47.188;8.840;2023-02-01T03:47:37;97816.20;;;10.22
69530;BMP180;56727;47.188;8.840;2023-02-01T03:50:19;97808.40;;;10.20
69530;BMP180;56727;47.188;8.840;2023-02-01T03:52:54;97824.00;;;10.20
69530;BMP180;56727;47.188;8.840;2023-02-01T03:55:23;97841.20;;;10.20
69530;BMP180;56727;47.188;8.840;2023-02-01T04:00:54;97837.00;;;10.18
69530;BMP180;56727;47.188;8.840;2023-02-01T04:03:21;97837.60;;;10.12
69530;BMP180;56727;47.188;8.840;2023-02-01T04:05:49;97838.00;;;10.10
69530;BMP180;56727;47.188;8.840;2023-02-01T04:08:18;97834.80;;;10.10
69530;BMP180;56727;47.188;8.840;2023-02-01T04:10:45;97831.60;;;10.16
69530;BMP180;56727;47.188;8.840;2023-02-01T04:13:12;97823.40;;;10.16
69530;BMP180;56727;47.188;8.840;2023-02-01T04:15:39;97816.40;;;10.20
69530;BMP180;56727;47.188;8.840;2023-02-01T04:18:06;97821.80;;;10.20
69530;BMP180;56727;47.188;8.840;2023-02-01T04:20:32;97813.00;;;10.20
69530;BMP180;56727;47.188;8.840;2023-02-01T04:22:59;97815.40;;;10.26
69530;BMP180;56727;47.188;8.840;2023-02-01T04:25:29;97805.20;;;10.20
69530;BMP180;56727;47.188;8.840;2023-02-01T04:27:56;97798.00;;;10.24
69530;BMP180;56727;47.188;8.840;2023-02-01T04:30:22;97796.80;;;10.30
69530;BMP180;56727;47.188;8.840;2023-02-01T04:32:50;97797.00;;;10.18
69530;BMP180;56727;47.188;8.840;2023-02-01T04:35:16;97800.20;;;10.10
69530;BMP180;56727;47.188;8.840;2023-02-01T04:37:44;97807.00;;;10.16
69530;BMP180;56727;47.188;8.840;2023-02-01T04:40:11;97807.60;;;10.20
69530;BMP180;56727;47.188;8.840;2023-02-01T04:42:38;97802.60;;;10.20
69530;BMP180;56727;47.188;8.840;2023-02-01T04:45:06;97805.40;;;10.28
69530;BMP180;56727;47.188;8.840;2023-02-01T04:47:32;97821.80;;;10.34
69530;BMP180;56727;47.188;8.840;2023-02-01T04:49:59;97826.00;;;10.38
69530;BMP180;56727;47.188;8.840;2023-02-01T04:52:26;97818.80;;;10.38
69530;BMP180;56727;47.188;8.840;2023-02-01T04:54:53;97829.20;;;10.40
69530;BMP180;56727;47.188;8.840;2023-02-01T04:57:23;97832.20;;;10.40
69530;BMP180;56727;47.188;8.840;2023-02-01T04:59:50;97842.00;;;10.38
69530;BMP180;56727;47.188;8.840;2023-02-01T05:02:17;97849.00;;;10.40
69530;BMP180;56727;47.188;8.840;2023-02-01T05:04:44;97853.00;;;10.40
69530;BMP180;56727;47.188;8.840;2023-02-01T05:07:10;97859.00;;;10.40
69530;BMP180;56727;47.188;8.840;2023-02-01T05:09:38;97868.40;;;10.40
69530;BMP180;56727;47.188;8.840;2023-02-01T05:12:05;97872.20;;;10.40
69530;BMP180;56727;47.188;8.840;2023-02-01T05:14:50;97873.00;;;10.42
69530;BMP180;56727;47.188;8.840;2023-02-01T05:33:05;97888.80;;;10.62
69530;BMP180;56727;47.188;8.840;2023-02-01T05:35:32;97882.00;;;10.50
69530;BMP180;56727;47.188;8.840;2023-02-01T05:37:58;97883.60;;;10.40
69530;BMP180;56727;47.188;8.840;2023-02-01T05:40:25;97882.80;;;10.40
69530;BMP180;56727;47.188;8.840;2023-02-01T05:42:51;97885.80;;;10.40
69530;BMP180;56727;47.188;8.840;2023-02-01T05:45:18;97894.00;;;10.34
69530;BMP180;56727;47.188;8.840;2023-02-01T05:47:45;97902.00;;;10.36
69530;BMP180;56727;47.188;8.840;2023-02-01T05:50:11;97897.60;;;10.36
69530;BMP180;56727;47.188;8.840;2023-02-01T05:52:38;97883.20;;;10.38
69530;BMP180;56727;47.188;8.840;2023-02-01T05:55:05;97887.00;;;10.40
69530;BMP180;56727;47.188;8.840;2023-02-01T05:57:32;97884.20;;;10.36
69530;BMP180;56727;47.188;8.840;2023-02-01T05:59:58;97877.00;;;10.36
69530;BMP180;56727;47.188;8.840;2023-02-01T06:02:25;97861.00;;;10.30
69530;BMP180;56727;47.188;8.840;2023-02-01T06:04:51;97852.00;;;10.30
69530;BMP180;56727;47.188;8.840;2023-02-01T06:07:18;97847.20;;;10.30
69530;BMP180;56727;47.188;8.840;2023-02-01T06:09:45;97852.20;;;10.24
69530;BMP180;56727;47.188;8.840;2023-02-01T06:12:11;97858.40;;;10.20
69530;BMP180;56727;47.188;8.840;2023-02-01T06:14:38;97848.80;;;10.20
69530;BMP180;56727;47.188;8.840;2023-02-01T06:17:05;97841.40;;;10.22
69530;BMP180;56727;47.188;8.840;2023-02-01T06:19:32;97853.00;;;10.26
69530;BMP180;56727;47.188;8.840;2023-02-01T06:21:59;97862.40;;;10.22
69530;BMP180;56727;47.188;8.840;2023-02-01T06:24:25;97870.20;;;10.16
69530;BMP180;56727;47.188;8.840;2023-02-01T06:26:52;97872.80;;;10.14
69530;BMP180;56727;47.188;8.840;2023-02-01T06:29:18;97875.40;;;10.20
69530;BMP180;56727;47.188;8.840;2023-02-01T06:31:45;97885.80;;;10.22
69530;BMP180;56727;47.188;8.840;2023-02-01T06:34:11;97894.80;;;10.30
69530;BMP180;56727;47.188;8.840;2023-02-01T06:36:38;97903.40;;;10.34
69530;BMP180;56727;47.188;8.840;2023-02-01T06:39:04;97909.00;;;10.44
69530;BMP180;56727;47.188;8.840;2023-02-01T06:41:31;97908.00;;;10.50
69530;BMP180;56727;47.188;8.840;2023-02-01T06:44:01;97897.80;;;10.50
69530;BMP180;56727;47.188;8.840;2023-02-01T06:46:28;97905.00;;;10.50
69530;BMP180;56727;47.188;8.840;2023-02-01T06:48:55;97899.60;;;10.46
69530;BMP180;56727;47.188;8.840;2023-02-01T06:51:26;97901.80;;;10.48
69530;BMP180;56727;47.188;8.840;2023-02-01T06:53:54;97887.20;;;10.42
69530;BMP180;56727;47.188;8.840;2023-02-01T06:56:22;97882.80;;;10.40
69530;BMP180;56727;47.188;8.840;2023-02-01T06:58:51;97890.80;;;10.34
69530;BMP180;56727;47.188;8.840;2023-02-01T07:01:20;97884.20;;;10.40
69530;BMP180;56727;47.188;8.840;2023-02-01T07:03:49;97896.60;;;10.48
69530;BMP180;56727;47.188;8.840;2023-02-01T07:06:19;97896.00;;;10.50
69530;BMP180;56727;47.188;8.840;2023-02-01T07:08:48;97896.00;;;10.50
69530;BMP180;56727;47.188;8.840;2023-02-01T07:11:18;97897.80;;;10.50
69530;BMP180;56727;47.188;8.840;2023-02-01T07:13:46;97898.80;;;10.50
69530;BMP180;56727;47.188;8.840;2023-02-01T07:16:17;97904.00;;;10.52
69530;BMP180;56727;47.188;8.840;2023-02-01T07:18:44;97906.60;;;10.58
69530;BMP180;56727;47.188;8.840;2023-02-01T07:21:11;97909.20;;;10.60
69530;BMP180;56727;47.188;8.840;2023-02-01T07:23:39;97914.60;;;10.58
69530;BMP180;56727;47.188;8.840;2023-02-01T07:26:09;97920.60;;;10.60
69530;BMP180;56727;47.188;8.840;2023-02-01T07:28:36;97925.60;;;10.68
69530;BMP180;56727;47.188;8.840;2023-02-01T07:31:17;97936.40;;;10.70
69530;BMP180;56727;47.188;8.840;2023-02-01T07:33:49;97944.20;;;10.70
69530;BMP180;56727;47.188;8.840;2023-02-01T07:36:19;97947.40;;;10.70
69530;BMP180;56727;47.188;8.840;2023-02-01T07:38:46;97951.60;;;10.70
69530;BMP180;56727;47.188;8.840;2023-02-01T07:41:14;97952.00;;;10.70
69530;BMP180;56727;47.188;8.840;2023-02-01T07:43:40;97951.80;;;10.72
69530;BMP180;56727;47.188;8.840;2023-02-01T07:46:09;97962.20;;;10.68
69530;BMP180;56727;47.188;8.840;2023-02-01T07:48:36;97967.60;;;10.60
69530;BMP180;56727;47.188;8.840;2023-02-01T07:51:11;97980.60;;;10.54
69530;BMP180;56727;47.188;8.840;2023-02-01T07:53:38;97977.40;;;10.58
69530;BMP180;56727;47.188;8.840;2023-02-01T07:56:14;97971.00;;;10.56
69530;BMP180;56727;47.188;8.840;2023-02-01T07:58:41;97964.00;;;10.58
69530;BMP180;56727;47.188;8.840;2023-02-01T08:01:19;97962.80;;;10.56
69530;BMP180;56727;47.188;8.840;2023-02-01T08:03:57;97964.00;;;10.60
69530;BMP180;56727;47.188;8.840;2023-02-01T08:06:31;97946.20;;;10.60
69530;BMP180;56727;47.188;8.840;2023-02-01T08:08:58;97954.40;;;10.60
69530;BMP180;56727;47.188;8.840;2023-02-01T08:11:26;97959.20;;;10.58
69530;BMP180;56727;47.188;8.840;2023-02-01T08:13:53;97954.60;;;10.60
69530;BMP180;56727;47.188;8.840;2023-02-01T08:16:21;97962.80;;;10.60
69530;BMP180;56727;47.188;8.840;2023-02-01T08:18:49;97959.00;;;10.60
69530;BMP180;56727;47.188;8.840;2023-02-01T08:21:20;97970.60;;;10.62
69530;BMP180;56727;47.188;8.840;2023-02-01T08:23:49;97962.00;;;10.70
69530;BMP180;56727;47.188;8.840;2023-02-01T08:26:25;97970.20;;;10.74
69530;BMP180;56727;47.188;8.840;2023-02-01T08:28:59;97972.40;;;10.80
69530;BMP180;56727;47.188;8.840;2023-02-01T08:31:29;97972.60;;;10.92
69530;BMP180;56727;47.188;8.840;2023-02-01T08:34:00;97969.40;;;11.00
69530;BMP180;56727;47.188;8.840;2023-02-01T08:36:30;97962.00;;;11.20
69530;BMP180;56727;47.188;8.840;2023-02-01T08:38:57;97956.20;;;11.30
69530;BMP180;56727;47.188;8.840;2023-02-01T08:41:28;97954.60;;;11.40
69530;BMP180;56727;47.188;8.840;2023-02-01T08:43:57;97954.20;;;11.48
69530;BMP180;56727;47.188;8.840;2023-02-01T08:46:24;97950.20;;;11.52
69530;BMP180;56727;47.188;8.840;2023-02-01T08:48:51;97942.40;;;11.60
69530;BMP180;56727;47.188;8.840;2023-02-01T08:51:20;97939.20;;;11.62
69530;BMP180;56727;47.188;8.840;2023-02-01T08:53:49;97940.00;;;11.68
69530;BMP180;56727;47.188;8.840;2023-02-01T08:56:20;97937.40;;;11.72
69530;BMP180;56727;47.188;8.840;2023-02-01T08:58:48;97924.20;;;11.70
69530;BMP180;56727;47.188;8.840;2023-02-01T09:01:18;97926.20;;;11.72
69530;BMP180;56727;47.188;8.840;2023-02-01T09:03:46;97927.40;;;11.82
69530;BMP180;56727;47.188;8.840;2023-02-01T09:06:18;97926.20;;;11.90
69530;BMP180;56727;47.188;8.840;2023-02-01T09:08:56;97929.00;;;12.00
69530;BMP180;56727;47.188;8.840;2023-02-01T09:11:26;97946.00;;;12.00
69530;BMP180;56727;47.188;8.840;2023-02-01T09:13:55;97947.60;;;11.98
69530;BMP180;56727;47.188;8.840;2023-02-01T09:16:23;97967.40;;;11.96
69530;BMP180;56727;47.188;8.840;2023-02-01T09:18:50;97979.40;;;11.90
69530;BMP180;56727;47.188;8.840;2023-02-01T09:21:26;97984.80;;;11.88
69530;BMP180;56727;47.188;8.840;2023-02-01T09:24:18;97972.80;;;11.90
69530;BMP180;56727;47.188;8.840;2023-02-01T09:26:47;97972.60;;;11.84
69530;BMP180;56727;47.188;8.840;2023-02-01T09:29:15;97964.80;;;11.80
69530;BMP180;56727;47.188;8.840;2023-02-01T09:31:46;97967.20;;;11.74
69530;BMP180;56727;47.188;8.840;2023-02-01T09:34:21;97964.80;;;11.68
69530;BMP180;56727;47.188;8.840;2023-02-01T09:36:54;97946.60;;;11.68
69530;BMP180;56727;47.188;8.840;2023-02-01T09:39:27;97940.80;;;11.60
69530;BMP180;56727;47.188;8.840;2023-02-01T09:42:46;97950.80;;;11.60
69530;BMP180;56727;47.188;8.840;2023-02-01T09:46:18;97955.20;;;11.60
69530;BMP180;56727;47.188;8.840;2023-02-01T09:49:03;97960.20;;;11.60
69530;BMP180;56727;47.188;8.840;2023-02-01T09:51:38;97963.60;;;11.58
69530;BMP180;56727;47.188;8.840;2023-02-01T09:54:16;97979.00;;;11.60
69530;BMP180;56727;47.188;8.840;2023-02-01T09:56:53;97982.40;;;11.60
69530;BMP180;56727;47.188;8.840;2023-02-01T09:59:47;97984.80;;;11.60
69530;BMP180;56727;47.188;8.840;2023-02-01T10:02:24;97986.00;;;11.70
69530;BMP180;56727;47.188;8.840;2023-02-01T10:04:58;97985.40;;;11.62
69530;BMP180;56727;47.188;8.840;2023-02-01T10:07:49;97983.80;;;11.50
69530;BMP180;56727;47.188;8.840;2023-02-01T10:10:48;97987.60;;;11.54
69530;BMP180;56727;47.188;8.840;2023-02-01T10:14:04;97982.20;;;11.60
69530;BMP180;56727;47.188;8.840;2023-02-01T10:20:06;97949.80;;;11.64
69530;BMP180;56727;47.188;8.840;2023-02-01T10:22:45;97952.00;;;11.60
69530;BMP180;56727;47.188;8.840;2023-02-01T10:25:28;97956.20;;;11.70
69530;BMP180;56727;47.188;8.840;2023-02-01T10:28:00;97958.00;;;11.80
69530;BMP180;56727;47.188;8.840;2023-02-01T10:30:38;97954.80;;;11.80
69530;BMP180;56727;47.188;8.840;2023-02-01T10:33:30;97947.40;;;11.78
69530;BMP180;56727;47.188;8.840;2023-02-01T10:36:13;97945.60;;;11.68
69530;BMP180;56727;47.188;8.840;2023-02-01T10:38:41;97948.80;;;11.66
69530;BMP180;56727;47.188;8.840;2023-02-01T10:41:15;97948.80;;;11.62
69530;BMP180;56727;47.188;8.840;2023-02-01T10:43:45;97959.40;;;11.66
69530;BMP180;56727;47.188;8.840;2023-02-01T10:46:14;97955.20;;;11.68
69530;BMP180;56727;47.188;8.840;2023-02-01T10:48:41;97959.80;;;11.70
69530;BMP180;56727;47.188;8.840;2023-02-01T10:51:19;97955.20;;;11.70
69530;BMP180;56727;47.188;8.840;2023-02-01T10:53:55;97949.60;;;11.80
69530;BMP180;56727;47.188;8.840;2023-02-01T10:56:27;97947.20;;;11.84
69530;BMP180;56727;47.188;8.840;2023-02-01T10:59:13;97937.40;;;11.90
69530;BMP180;56727;47.188;8.840;2023-02-01T11:01:42;97940.60;;;11.98
69530;BMP180;56727;47.188;8.840;2023-02-01T11:04:20;97940.60;;;12.00
69530;BMP180;56727;47.188;8.840;2023-02-01T11:06:52;97937.80;;;12.06
69530;BMP180;56727;47.188;8.840;2023-02-01T11:09:22;97933.40;;;12.10
69530;BMP180;56727;47.188;8.840;2023-02-01T11:11:57;97943.00;;;12.12
69530;BMP180;56727;47.188;8.840;2023-02-01T11:14:38;97932.20;;;12.14
69530;BMP180;56727;47.188;8.840;2023-02-01T11:17:26;97932.00;;;12.20
69530;BMP180;56727;47.188;8.840;2023-02-01T11:20:21;97921.40;;;12.26
69530;BMP180;56727;47.188;8.840;2023-02-01T11:22:56;97918.00;;;12.30
69530;BMP180;56727;47.188;8.840;2023-02-01T11:25:25;97918.20;;;12.30
69530;BMP180;56727;47.188;8.840;2023-02-01T11:28:01;97911.20;;;12.26
69530;BMP180;56727;47.188;8.840;2023-02-01T11:33:58;97899.60;;;12.60
69530;BMP180;56727;47.188;8.840;2023-02-01T11:36:35;97901.20;;;12.52
69530;BMP180;56727;47.188;8.840;2023-02-01T11:39:29;97900.40;;;12.50
69530;BMP180;56727;47.188;8.840;2023-02-01T11:42:22;97893.40;;;12.60
69530;BMP180;56727;47.188;8.840;2023-02-01T11:45:32;97901.00;;;12.68
69530;BMP180;56727;47.188;8.840;2023-02-01T11:48:10;97906.20;;;12.80
69530;BMP180;56727;47.188;8.840;2023-02-01T11:50:57;97901.40;;;12.78
69530;BMP180;56727;47.188;8.840;2023-02-01T11:54:28;97895.80;;;12.84
69530;BMP180;56727;47.188;8.840;2023-02-01T11:57:17;97885.80;;;12.98
69530;BMP180;56727;47.188;8.840;2023-02-01T12:01:13;97876.60;;;13.00
69530;BMP180;56727;47.188;8.840;2023-02-01T12:04:40;97867.40;;;13.14
69530;BMP180;56727;47.188;8.840;2023-02-01T12:07:14;97855.60;;;13.16
69530;BMP180;56727;47.188;8.840;2023-02-01T12:10:27;97860.60;;;13.10
69530;BMP180;56727;47.188;8.840;2023-02-01T12:13:30;97849.60;;;13.16
69530;BMP180;56727;47.188;8.840;2023-02-01T12:16:35;97845.80;;;13.20
69530;BMP180;56727;47.188;8.840;2023-02-01T12:23:15;97833.80;;;13.40
69530;BMP180;56727;47.188;8.840;2023-02-01T12:26:41;97839.40;;;13.36
69530;BMP180;56727;47.188;8.840;2023-02-01T12:29:30;97833.20;;;13.40
69530;BMP180;56727;47.188;8.840;2023-02-01T12:35:49;97818.40;;;13.52
69530;BMP180;56727;47.188;8.840;2023-02-01T12:38:52;97820.00;;;13.50
69530;BMP180;56727;47.188;8.840;2023-02-01T12:42:36;97814.40;;;13.58
69530;BMP180;56727;47.188;8.840;2023-02-01T12:44:59;97808.20;;;13.60
69530;BMP180;56727;47.188;8.840;2023-02-01T12:47:51;97794.80;;;13.52
69530;BMP180;56727;47.188;8.840;2023-02-01T12:50:28;97801.40;;;13.50
69530;BMP180;56727;47.188;8.840;2023-02-01T12:53:19;97790.60;;;13.46
69530;BMP180;56727;47.188;8.840;2023-02-01T12:55:55;97791.20;;;13.46
69530;BMP180;56727;47.188;8.840;2023-02-01T12:58:43;97785.40;;;13.40
69530;BMP180;56727;47.188;8.840;2023-02-01T13:01:30;97789.00;;;13.40
69530;BMP180;56727;47.188;8.840;2023-02-01T13:04:17;97793.40;;;13.40
69530;BMP180;56727;47.188;8.840;2023-02-01T13:06:51;97795.40;;;13.40
69530;BMP180;56727;47.188;8.840;2023-02-01T13:09:43;97798.20;;;13.40
69530;BMP180;56727;47.188;8.840;2023-02-01T13:12:36;97798.80;;;13.40
69530;BMP180;56727;47.188;8.840;2023-02-01T13:15:17;97803.60;;;13.46
69530;BMP180;56727;47.188;8.840;2023-02-01T13:17:47;97793.80;;;13.40
69530;BMP180;56727;47.188;8.840;2023-02-01T13:20:30;97789.00;;;13.38
69530;BMP180;56727;47.188;8.840;2023-02-01T13:23:09;97782.60;;;13.40
69530;BMP180;56727;47.188;8.840;2023-02-01T13:25:46;97768.80;;;13.38
69530;BMP180;56727;47.188;8.840;2023-02-01T13:28:47;97759.80;;;13.40
69530;BMP180;56727;47.188;8.840;2023-02-01T13:32:09;97766.80;;;13.48
69530;BMP180;56727;47.188;8.840;2023-02-01T13:41:53;97764.60;;;13.68
69530;BMP180;56727;47.188;8.840;2023-02-01T13:44:50;97779.40;;;13.56
69530;BMP180;56727;47.188;8.840;2023-02-01T13:47:31;97772.40;;;13.48
69530;BMP180;56727;47.188;8.840;2023-02-01T13:52:59;97761.40;;;13.40
69530;BMP180;56727;47.188;8.840;2023-02-01T13:55:31;97765.80;;;13.42
69530;BMP180;56727;47.188;8.840;2023-02-01T13:58:09;97773.20;;;13.40
69530;BMP180;56727;47.188;8.840;2023-02-01T14:00:40;97774.80;;;13.42
69530;BMP180;56727;47.188;8.840;2023-02-01T14:03:43;97768.60;;;13.40
69530;BMP180;56727;47.188;8.840;2023-02-01T14:06:46;97765.00;;;13.52
69530;BMP180;56727;47.188;8.840;2023-02-01T14:09:34;97761.60;;;13.60
69530;BMP180;56727;47.188;8.840;2023-02-01T14:12:42;97756.60;;;13.60
69530;BMP180;56727;47.188;8.840;2023-02-01T14:18:58;97750.40;;;13.84
69530;BMP180;56727;47.188;8.840;2023-02-01T14:21:34;97747.00;;;13.78
69530;BMP180;56727;47.188;8.840;2023-02-01T14:24:34;97749.00;;;13.80
69530;BMP180;56727;47.188;8.840;2023-02-01T14:27:18;97749.60;;;13.88
69530;BMP180;56727;47.188;8.840;2023-02-01T14:29:52;97754.00;;;13.90
69530;BMP180;56727;47.188;8.840;2023-02-01T14:32:31;97759.60;;;13.88
69530;BMP180;56727;47.188;8.840;2023-02-01T14:35:05;97765.40;;;13.84
69530;BMP180;56727;47.188;8.840;2023-02-01T14:37:37;97775.80;;;13.80
69530;BMP180;56727;47.188;8.840;2023-02-01T14:40:20;97774.80;;;13.82
69530;BMP180;56727;47.188;8.840;2023-02-01T14:42:51;97776.60;;;13.90
69530;BMP180;56727;47.188;8.840;2023-02-01T14:45:48;97777.80;;;13.88
69530;BMP180;56727;47.188;8.840;2023-02-01T14:48:41;97779.40;;;13.92
69530;BMP180;56727;47.188;8.840;2023-02-01T14:51:13;97779.00;;;13.96
69530;BMP180;56727;47.188;8.840;2023-02-01T14:53:42;97781.80;;;13.90
69530;BMP180;56727;47.188;8.840;2023-02-01T14:56:17;97777.80;;;13.82
69530;BMP180;56727;47.188;8.840;2023-02-01T14:59:05;97762.20;;;13.84
69530;BMP180;56727;47.188;8.840;2023-02-01T15:01:36;97777.20;;;13.90
69530;BMP180;56727;47.188;8.840;2023-02-01T15:04:18;97779.40;;;13.90
69530;BMP180;56727;47.188;8.840;2023-02-01T15:07:07;97786.00;;;13.88
69530;BMP180;56727;47.188;8.840;2023-02-01T15:09:39;97794.40;;;13.90
69530;BMP180;56727;47.188;8.840;2023-02-01T15:12:19;97808.20;;;13.80
69530;BMP180;56727;47.188;8.840;2023-02-01T15:15:22;97809.80;;;13.80
69530;BMP180;56727;47.188;8.840;2023-02-01T15:17:54;97818.80;;;13.78
69530;BMP180;56727;47.188;8.840;2023-02-01T15:20:26;97823.00;;;13.70
69530;BMP180;56727;47.188;8.840;2023-02-01T15:23:01;97816.00;;;13.68
69530;BMP180;56727;47.188;8.840;2023-02-01T15:25:38;97819.80;;;13.60
69530;BMP180;56727;47.188;8.840;2023-02-01T15:28:15;97820.40;;;13.60
69530;BMP180;56727;47.188;8.840;2023-02-01T15:31:05;97824.20;;;13.70
69530;BMP180;56727;47.188;8.840;2023-02-01T15:33:32;97818.20;;;13.78
69530;BMP180;56727;47.188;8.840;2023-02-01T15:36:18;97829.40;;;13.72
69530;BMP180;56727;47.188;8.840;2023-02-01T15:38:45;97827.60;;;13.78
69530;BMP180;56727;47.188;8.840;2023-02-01T15:41:18;97831.60;;;13.66
69530;BMP180;56727;47.188;8.840;2023-02-01T15:44:15;97838.60;;;13.70
69530;BMP180;56727;47.188;8.840;2023-02-01T15:46:49;97844.80;;;13.60
69530;BMP180;56727;47.188;8.840;2023-02-01T15:49:39;97853.20;;;13.50
69530;BMP180;56727;47.188;8.840;2023-02-01T15:52:21;97852.80;;;13.48
69530;BMP180;56727;47.188;8.840;2023-02-01T15:54:54;97858.20;;;13.44
69530;BMP180;56727;47.188;8.840;2023-02-01T15:57:34;97853.60;;;13.36
69530;BMP180;56727;47.188;8.840;2023-02-01T16:00:25;97860.00;;;13.40
69530;BMP180;56727;47.188;8.840;2023-02-01T16:02:59;97861.00;;;13.36
69530;BMP180;56727;47.188;8.840;2023-02-01T16:05:58;97863.20;;;13.30
69530;BMP180;56727;47.188;8.840;2023-02-01T16:08:28;97868.20;;;13.40